Time;durP1;ratioP1;P1;durP2;ratioP2;P2;SDS_P1;SDS_P2;PMS_P1;PMS_P2;Temp;Humidity;BMP_temperature;BMP_pressure;BME280_temperature;BME280_humidity;BME280_pressure;Samples;Min_cycle;Max_cycle;Signal;HPM_P1;HPM_P2
2022/01/16 00:04:16;;;;;;;62.95;25.73;;;;;;;;;;5063912;28;20417;-78
2022/01/16 00:06:45;;;;;;;58.15;24.52;;;;;;;;;;5057587;28;20032;-77
2022/01/16 00:09:11;;;;;;;62.72;24.08;;;;;;;;;;5062843;28;20506;-78
2022/01/16 00:11:36;;;;;;;66.68;24.10;;;;;;;;;;5066194;28;20027;-78
2022/01/16 00:14:03;;;;;;;66.47;23.85;;;;;;;;;;5058035;28;20024;-78
2022/01/16 00:16:29;;;;;;;63.55;24.65;;;;;;;;;;5059390;28;20044;-78
2022/01/16 00:18:54;;;;;;;59.15;23.00;;;;;;;;;;5057600;28;20588;-78
2022/01/16 00:21:22;;;;;;;69.82;26.40;;;;;;;;;;5059238;28;20480;-78
2022/01/16 00:23:48;;;;;;;67.15;25.20;;;;;;;;;;5062967;28;20060;-79
2022/01/16 00:26:14;;;;;;;69.45;25.42;;;;;;;;;;5068168;28;20028;-78
2022/01/16 00:28:39;;;;;;;72.57;28.30;;;;;;;;;;5067399;28;20037;-78
2022/01/16 00:31:04;;;;;;;70.53;28.02;;;;;;;;;;5059920;28;20025;-78
2022/01/16 00:33:30;;;;;;;70.97;26.88;;;;;;;;;;5060847;28;20456;-78
2022/01/16 00:35:55;;;;;;;66.53;25.55;;;;;;;;;;5060543;28;20386;-76
2022/01/16 00:38:20;;;;;;;65.75;26.00;;;;;;;;;;5059638;28;20028;-78
2022/01/16 00:40:46;;;;;;;66.72;25.80;;;;;;;;;;5058255;28;20457;-78
2022/01/16 00:43:11;;;;;;;68.35;24.35;;;;;;;;;;5060121;28;20037;-78
2022/01/16 00:45:36;;;;;;;69.28;26.10;;;;;;;;;;5060663;28;20123;-78
2022/01/16 00:48:04;;;;;;;57.15;24.10;;;;;;;;;;5057152;28;20063;-77
2022/01/16 00:50:31;;;;;;;69.18;25.38;;;;;;;;;;5052400;28;20711;-78
2022/01/16 00:52:56;;;;;;;63.88;25.63;;;;;;;;;;5065576;28;20543;-78
2022/01/16 00:55:22;;;;;;;58.17;23.27;;;;;;;;;;5074285;28;20040;-78
2022/01/16 00:57:47;;;;;;;63.05;24.83;;;;;;;;;;5056514;28;20063;-78
2022/01/16 01:00:13;;;;;;;61.47;24.65;;;;;;;;;;5056264;28;20136;-78
2022/01/16 01:02:38;;;;;;;56.55;24.67;;;;;;;;;;5057240;28;20062;-78
2022/01/16 01:05:04;;;;;;;66.63;26.20;;;;;;;;;;5061694;28;20432;-78
2022/01/16 01:07:29;;;;;;;59.38;24.75;;;;;;;;;;5063959;28;20044;-79
2022/01/16 01:09:55;;;;;;;60.25;24.75;;;;;;;;;;5061163;28;20422;-78
2022/01/16 01:12:28;;;;;;;60.92;25.00;;;;;;;;;;5060756;28;20139;-78
2022/01/16 01:15:07;;;;;;;;;;;;;;;;;;5063752;28;20804;-78
2022/01/16 01:17:36;;;;;;;62.83;23.13;;;;;;;;;;5064325;28;19912;-78
2022/01/16 01:20:02;;;;;;;59.00;22.85;;;;;;;;;;5054224;28;20048;-78
2022/01/16 01:22:28;;;;;;;63.67;25.48;;;;;;;;;;5058433;28;20040;-78
2022/01/16 01:24:53;;;;;;;65.80;25.55;;;;;;;;;;5056479;28;20094;-78
2022/01/16 01:27:23;;;;;;;64.95;25.25;;;;;;;;;;5059602;28;20519;-78
2022/01/16 01:30:01;;;;;;;58.92;24.02;;;;;;;;;;5057314;28;20520;-79
2022/01/16 01:32:27;;;;;;;61.40;25.27;;;;;;;;;;5065399;28;20039;-78
2022/01/16 01:34:53;;;;;;;58.97;24.58;;;;;;;;;;5064158;28;20013;-78
2022/01/16 01:37:18;;;;;;;64.72;25.88;;;;;;;;;;5067255;28;20051;-78
2022/01/16 01:39:43;;;;;;;62.15;24.40;;;;;;;;;;5067642;28;20045;-78
2022/01/16 01:42:11;;;;;;;69.43;25.98;;;;;;;;;;5066965;28;20102;-79
2022/01/16 01:52:53;;;;;;;67.43;24.83;;;;;;;;;;5060120;28;20056;-78
2022/01/16 01:55:19;;;;;;;62.63;24.88;;;;;;;;;;5073642;28;20056;-78
2022/01/16 01:57:44;;;;;;;58.67;24.38;;;;;;;;;;5059024;28;20429;-78
2022/01/16 02:00:17;;;;;;;65.18;26.15;;;;;;;;;;5058107;28;20063;-78
2022/01/16 02:03:05;;;;;;;61.08;23.35;;;;;;;;;;5047181;28;20044;-78
2022/01/16 02:05:31;;;;;;;71.50;26.10;;;;;;;;;;5049060;28;20039;-78
2022/01/16 02:07:57;;;;;;;59.85;23.50;;;;;;;;;;5066953;28;20111;-78
2022/01/16 02:10:24;;;;;;;61.55;24.55;;;;;;;;;;5056295;28;20041;-78
2022/01/16 02:12:56;;;;;;;60.28;23.10;;;;;;;;;;5065857;28;20048;-78
2022/01/16 02:15:50;;;;;;;58.33;24.50;;;;;;;;;;5059868;28;20048;-77
2022/01/16 02:31:58;;;;;;;61.88;23.92;;;;;;;;;;5070873;28;20076;-79
2022/01/16 02:37:23;;;;;;;59.67;23.50;;;;;;;;;;5050144;28;20048;-78
2022/01/16 02:39:51;;;;;;;62.13;24.35;;;;;;;;;;5064764;28;20051;-78
2022/01/16 02:42:18;;;;;;;60.97;24.45;;;;;;;;;;5067221;28;20529;-78
2022/01/16 02:44:49;;;;;;;65.95;24.70;;;;;;;;;;5065202;28;20583;-78
2022/01/16 02:47:17;;;;;;;63.05;23.75;;;;;;;;;;5064433;28;20028;-78
2022/01/16 02:49:47;;;;;;;66.07;23.92;;;;;;;;;;5062489;28;20496;-78
2022/01/16 02:52:16;;;;;;;70.65;26.20;;;;;;;;;;5070876;28;20032;-78
2022/01/16 02:54:43;;;;;;;66.85;25.75;;;;;;;;;;5061992;28;20040;-78
2022/01/16 02:57:11;;;;;;;69.25;25.77;;;;;;;;;;5062661;28;20135;-80
2022/01/16 02:59:38;;;;;;;78.85;27.98;;;;;;;;;;5059364;28;20111;-77
2022/01/16 03:02:05;;;;;;;81.93;28.23;;;;;;;;;;5060552;28;20024;-79
2022/01/16 03:04:31;;;;;;;76.68;27.50;;;;;;;;;;5062205;28;20043;-78
2022/01/16 03:06:59;;;;;;;69.03;26.63;;;;;;;;;;5062338;28;20032;-78
2022/01/16 03:09:28;;;;;;;69.75;27.58;;;;;;;;;;5062475;28;20915;-78
2022/01/16 03:11:54;;;;;;;71.10;28.50;;;;;;;;;;5063117;28;20085;-78
2022/01/16 03:14:21;;;;;;;76.97;26.70;;;;;;;;;;5061406;28;20439;-79
2022/01/16 03:16:50;;;;;;;85.45;29.13;;;;;;;;;;5069739;28;20501;-78
2022/01/16 03:22:03;;;;;;;80.30;30.10;;;;;;;;;;5062627;28;20148;-78
2022/01/16 03:24:39;;;;;;;76.90;26.92;;;;;;;;;;5060953;28;20041;-77
2022/01/16 03:27:18;;;;;;;76.15;28.83;;;;;;;;;;5063396;28;20047;-78
2022/01/16 03:29:51;;;;;;;88.80;28.85;;;;;;;;;;5065984;28;20040;-78
2022/01/16 03:32:19;;;;;;;75.22;27.73;;;;;;;;;;5066521;28;20025;-78
2022/01/16 03:34:45;;;;;;;80.25;28.73;;;;;;;;;;5059850;28;20100;-78
2022/01/16 03:37:10;;;;;;;78.90;27.73;;;;;;;;;;5059539;28;20134;-77
2022/01/16 03:39:36;;;;;;;79.95;28.08;;;;;;;;;;5062766;28;20109;-78
2022/01/16 03:42:01;;;;;;;81.72;28.15;;;;;;;;;;5069230;28;20043;-78
2022/01/16 03:44:28;;;;;;;78.88;25.15;;;;;;;;;;5068073;28;20402;-78
2022/01/16 03:46:54;;;;;;;80.93;26.77;;;;;;;;;;5061050;28;20113;-78
2022/01/16 03:49:23;;;;;;;91.03;32.33;;;;;;;;;;5060405;28;20032;-77
2022/01/16 03:51:50;;;;;;;85.50;27.50;;;;;;;;;;5059868;28;20033;-76
2022/01/16 03:54:17;;;;;;;94.60;29.48;;;;;;;;;;5059119;28;20036;-78
2022/01/16 03:56:43;;;;;;;89.20;28.40;;;;;;;;;;5056255;28;20051;-78
2022/01/16 03:59:09;;;;;;;84.80;28.92;;;;;;;;;;5055022;28;20016;-78
2022/01/16 04:01:35;;;;;;;79.57;27.05;;;;;;;;;;5065499;28;20132;-77
2022/01/16 04:04:01;;;;;;;69.47;24.77;;;;;;;;;;5063010;28;20080;-78
2022/01/16 04:06:26;;;;;;;84.90;27.40;;;;;;;;;;5063800;28;20144;-79
2022/01/16 04:08:54;;;;;;;71.88;25.08;;;;;;;;;;5068323;28;20044;-78
2022/01/16 04:11:22;;;;;;;74.57;24.65;;;;;;;;;;5063549;28;20060;-79
2022/01/16 04:13:51;;;;;;;70.53;25.02;;;;;;;;;;5065667;28;20700;-78
2022/01/16 04:16:17;;;;;;;75.22;25.25;;;;;;;;;;5060890;28;20082;-78
2022/01/16 04:18:42;;;;;;;80.30;25.33;;;;;;;;;;5066848;28;20041;-78
2022/01/16 04:21:08;;;;;;;77.68;24.15;;;;;;;;;;5060464;28;20644;-77
2022/01/16 04:23:33;;;;;;;81.50;25.55;;;;;;;;;;5060196;28;20060;-77
2022/01/16 04:25:58;;;;;;;77.13;25.65;;;;;;;;;;5060484;28;20540;-78
2022/01/16 04:28:25;;;;;;;75.93;24.13;;;;;;;;;;5061269;28;20112;-78
2022/01/16 04:30:53;;;;;;;77.35;26.02;;;;;;;;;;5061696;28;20040;-78
2022/01/16 04:33:19;;;;;;;88.22;26.17;;;;;;;;;;5060042;28;20529;-77
2022/01/16 04:35:45;;;;;;;83.32;25.88;;;;;;;;;;5060037;28;20729;-78
2022/01/16 04:38:10;;;;;;;85.70;27.20;;;;;;;;;;5061630;28;20166;-78
2022/01/16 04:43:47;;;;;;;99.80;28.30;;;;;;;;;;5067751;28;20044;-78
2022/01/16 04:43:48;;;;;;;86.60;26.90;;;;;;;;;;5058471;28;20597;-78
2022/01/16 04:46:16;;;;;;;;;;;;;;;;;;5061046;28;20900;-78
2022/01/16 04:48:42;;;;;;;95.43;25.05;;;;;;;;;;5060194;28;19920;-78
2022/01/16 04:51:08;;;;;;;116.85;28.77;;;;;;;;;;5066530;28;20047;-79
2022/01/16 04:53:34;;;;;;;113.18;29.33;;;;;;;;;;5065114;28;20481;-78
2022/01/16 04:55:59;;;;;;;134.52;27.38;;;;;;;;;;5056904;28;20571;-78
2022/01/16 04:58:25;;;;;;;181.02;29.48;;;;;;;;;;5059063;28;20056;-78
2022/01/16 05:00:50;;;;;;;136.23;28.00;;;;;;;;;;5073591;28;20052;-78
2022/01/16 05:03:15;;;;;;;152.20;26.33;;;;;;;;;;5081859;28;20044;-79
2022/01/16 05:05:41;;;;;;;127.07;24.50;;;;;;;;;;5066132;28;20044;-78
2022/01/16 05:08:06;;;;;;;112.32;24.42;;;;;;;;;;5062330;28;20451;-78
2022/01/16 05:10:32;;;;;;;113.07;24.00;;;;;;;;;;5056232;28;20473;-78
2022/01/16 05:13:16;;;;;;;152.82;25.73;;;;;;;;;;5060108;28;20044;-78
2022/01/16 05:18:25;;;;;;;89.97;24.23;;;;;;;;;;5065565;28;20058;-78
2022/01/16 05:20:50;;;;;;;99.43;24.80;;;;;;;;;;5066104;28;20608;-78
2022/01/16 05:23:15;;;;;;;76.97;23.45;;;;;;;;;;5058200;28;20644;-79
2022/01/16 05:25:41;;;;;;;91.28;25.00;;;;;;;;;;5062105;28;20130;-78
2022/01/16 05:28:06;;;;;;;100.60;25.27;;;;;;;;;;5058900;28;20068;-78
2022/01/16 05:30:31;;;;;;;111.07;26.13;;;;;;;;;;5057977;28;20033;-78
2022/01/16 05:32:57;;;;;;;81.05;23.50;;;;;;;;;;5055536;28;20083;-78
2022/01/16 05:35:22;;;;;;;99.40;25.85;;;;;;;;;;5057771;28;20390;-78
2022/01/16 05:37:47;;;;;;;87.85;23.55;;;;;;;;;;5057043;28;20502;-78
2022/01/16 05:40:13;;;;;;;98.07;23.55;;;;;;;;;;5057176;28;21139;-78
2022/01/16 05:42:38;;;;;;;88.75;25.00;;;;;;;;;;5059563;28;20526;-78
2022/01/16 05:45:04;;;;;;;92.70;22.52;;;;;;;;;;5064414;28;20113;-79
2022/01/16 05:47:29;;;;;;;78.15;22.13;;;;;;;;;;5077714;28;20040;-80
2022/01/16 05:49:54;;;;;;;81.88;23.15;;;;;;;;;;5068589;28;20082;-78
2022/01/16 05:52:20;;;;;;;74.97;23.48;;;;;;;;;;5057477;28;20034;-78
2022/01/16 05:54:45;;;;;;;80.57;23.55;;;;;;;;;;5057732;28;20045;-78
2022/01/16 05:57:12;;;;;;;78.22;21.08;;;;;;;;;;5059565;28;20407;-79
2022/01/16 05:59:37;;;;;;;79.30;20.92;;;;;;;;;;5056453;28;20541;-78
2022/01/16 06:02:03;;;;;;;94.88;24.67;;;;;;;;;;5060659;28;20037;-78
2022/01/16 06:04:28;;;;;;;112.97;28.27;;;;;;;;;;5062546;28;20044;-79
2022/01/16 06:06:53;;;;;;;93.07;26.08;;;;;;;;;;5063282;28;20044;-78
2022/01/16 06:09:19;;;;;;;100.22;26.42;;;;;;;;;;5063723;28;20209;-79
2022/01/16 06:11:44;;;;;;;109.13;27.10;;;;;;;;;;5060220;28;20043;-78
2022/01/16 06:14:09;;;;;;;106.00;27.95;;;;;;;;;;5058380;28;20017;-78
2022/01/16 06:16:35;;;;;;;100.40;27.00;;;;;;;;;;5059272;28;20040;-78
2022/01/16 06:19:01;;;;;;;69.32;20.85;;;;;;;;;;5062833;28;20044;-78
2022/01/16 06:21:26;;;;;;;75.50;23.65;;;;;;;;;;5064597;28;20063;-78
2022/01/16 06:23:51;;;;;;;74.63;24.33;;;;;;;;;;5064238;28;20064;-78
2022/01/16 06:26:16;;;;;;;63.92;21.75;;;;;;;;;;5067910;28;20058;-79
2022/01/16 06:28:42;;;;;;;67.95;21.13;;;;;;;;;;5070757;28;20700;-79
2022/01/16 06:31:07;;;;;;;75.00;21.75;;;;;;;;;;5062178;28;20461;-78
2022/01/16 06:33:32;;;;;;;72.68;22.25;;;;;;;;;;5063142;28;20784;-78
2022/01/16 06:35:58;;;;;;;108.18;21.90;;;;;;;;;;5061836;28;20508;-78
2022/01/16 06:38:23;;;;;;;74.55;21.50;;;;;;;;;;5065459;28;20027;-77
2022/01/16 06:40:49;;;;;;;65.82;19.42;;;;;;;;;;5070251;28;20685;-79
2022/01/16 06:43:14;;;;;;;65.70;18.98;;;;;;;;;;5066325;28;20041;-78
2022/01/16 06:45:39;;;;;;;62.53;18.58;;;;;;;;;;5056779;28;20033;-80
2022/01/16 06:48:05;;;;;;;62.03;19.98;;;;;;;;;;5063811;28;20040;-78
2022/01/16 06:50:31;;;;;;;78.18;21.17;;;;;;;;;;5059859;28;20043;-78
2022/01/16 06:52:56;;;;;;;60.25;17.55;;;;;;;;;;5071013;28;20021;-79
2022/01/16 06:55:21;;;;;;;82.35;19.85;;;;;;;;;;5065760;28;20047;-78
2022/01/16 06:57:47;;;;;;;92.72;20.05;;;;;;;;;;5061902;28;20067;-78
2022/01/16 07:00:12;;;;;;;97.85;20.08;;;;;;;;;;5059929;28;20053;-78
2022/01/16 07:02:38;;;;;;;89.25;20.77;;;;;;;;;;5069663;28;20047;-79
2022/01/16 07:05:04;;;;;;;125.88;21.25;;;;;;;;;;5062905;28;20016;-78
2022/01/16 07:07:31;;;;;;;95.63;20.17;;;;;;;;;;5059732;28;20028;-78
2022/01/16 07:09:56;;;;;;;109.35;19.95;;;;;;;;;;5062356;28;20045;-79
2022/01/16 07:12:21;;;;;;;48.30;16.92;;;;;;;;;;5059040;28;20040;-77
2022/01/16 07:14:48;;;;;;;68.28;17.52;;;;;;;;;;5060842;28;20048;-79
2022/01/16 07:17:13;;;;;;;82.65;19.48;;;;;;;;;;5067612;28;20028;-79
2022/01/16 07:19:39;;;;;;;54.50;17.58;;;;;;;;;;5069668;28;20047;-78
2022/01/16 07:22:04;;;;;;;59.30;19.75;;;;;;;;;;5063686;28;20047;-78
2022/01/16 07:24:30;;;;;;;78.10;19.88;;;;;;;;;;5060775;28;20043;-78
2022/01/16 07:26:55;;;;;;;74.57;19.88;;;;;;;;;;5062973;28;20037;-78
2022/01/16 07:29:21;;;;;;;68.38;20.02;;;;;;;;;;5060515;28;20745;-78
2022/01/16 07:31:46;;;;;;;51.13;16.80;;;;;;;;;;5051131;28;20480;-76
2022/01/16 07:34:12;;;;;;;67.95;19.77;;;;;;;;;;5055605;28;20047;-78
2022/01/16 07:36:38;;;;;;;65.05;19.27;;;;;;;;;;5057152;28;20041;-77
2022/01/16 07:39:03;;;;;;;73.82;21.15;;;;;;;;;;5060522;28;20041;-77
2022/01/16 07:41:29;;;;;;;63.33;19.75;;;;;;;;;;5059061;28;20032;-77
2022/01/16 07:43:54;;;;;;;75.05;21.63;;;;;;;;;;5059619;28;20028;-80
2022/01/16 07:46:19;;;;;;;74.65;21.30;;;;;;;;;;5063070;28;20124;-80
2022/01/16 07:48:45;;;;;;;65.00;19.10;;;;;;;;;;5060716;28;20047;-79
2022/01/16 07:51:10;;;;;;;67.82;20.08;;;;;;;;;;5060513;28;20628;-80
2022/01/16 07:53:37;;;;;;;68.18;19.10;;;;;;;;;;5054059;28;20033;-80
2022/01/16 07:56:03;;;;;;;86.78;24.00;;;;;;;;;;5057812;28;20123;-79
2022/01/16 07:58:28;;;;;;;93.70;26.50;;;;;;;;;;5056494;28;20798;-79
2022/01/16 08:00:53;;;;;;;85.53;24.80;;;;;;;;;;5058613;28;20044;-77
2022/01/16 08:03:19;;;;;;;98.60;25.55;;;;;;;;;;5058877;28;20465;-78
2022/01/16 08:05:44;;;;;;;77.88;22.33;;;;;;;;;;5058448;28;20425;-77
2022/01/16 08:08:09;;;;;;;70.78;22.58;;;;;;;;;;5068158;28;20402;-78
2022/01/16 08:10:34;;;;;;;81.38;23.52;;;;;;;;;;5056872;28;20043;-78
2022/01/16 08:13:00;;;;;;;86.53;26.98;;;;;;;;;;5056521;28;20052;-78
2022/01/16 08:15:25;;;;;;;88.43;25.95;;;;;;;;;;5058676;28;20052;-77
2022/01/16 08:17:51;;;;;;;96.70;27.15;;;;;;;;;;5055443;28;20036;-78
2022/01/16 08:20:16;;;;;;;64.90;20.48;;;;;;;;;;5061828;28;20024;-77
2022/01/16 08:22:43;;;;;;;73.47;21.63;;;;;;;;;;5056096;28;20085;-78
2022/01/16 08:25:09;;;;;;;86.85;23.45;;;;;;;;;;5058937;28;20093;-78
2022/01/16 08:27:34;;;;;;;89.63;25.02;;;;;;;;;;5055924;28;20044;-77
2022/01/16 08:30:00;;;;;;;70.15;20.92;;;;;;;;;;5057530;28;20548;-77
2022/01/16 08:32:25;;;;;;;58.80;19.08;;;;;;;;;;5055207;28;20490;-77
2022/01/16 08:34:50;;;;;;;66.32;20.13;;;;;;;;;;5056613;28;20147;-77
2022/01/16 08:37:16;;;;;;;68.75;19.17;;;;;;;;;;5077174;28;20105;-77
2022/01/16 08:39:41;;;;;;;69.88;20.02;;;;;;;;;;5079042;28;20035;-77
2022/01/16 08:42:07;;;;;;;53.03;18.75;;;;;;;;;;5089695;28;20398;-77
2022/01/16 08:44:32;;;;;;;54.53;19.92;;;;;;;;;;5058290;28;20447;-77
2022/01/16 08:46:58;;;;;;;59.67;18.58;;;;;;;;;;5074103;28;20050;-78
2022/01/16 08:49:23;;;;;;;58.88;18.35;;;;;;;;;;5074202;28;20051;-79
2022/01/16 08:51:48;;;;;;;57.90;18.58;;;;;;;;;;5075472;28;20139;-78
2022/01/16 08:54:14;;;;;;;58.10;18.48;;;;;;;;;;5077652;28;20113;-77
2022/01/16 08:56:39;;;;;;;53.05;17.40;;;;;;;;;;5077056;28;20020;-77
2022/01/16 08:59:05;;;;;;;52.60;16.65;;;;;;;;;;5057475;28;20032;-76
2022/01/16 09:01:30;;;;;;;58.45;17.90;;;;;;;;;;5054626;28;20045;-76
2022/01/16 09:03:56;;;;;;;50.42;16.95;;;;;;;;;;5060498;28;20131;-76
2022/01/16 09:06:21;;;;;;;49.42;15.75;;;;;;;;;;5064015;28;20041;-76
2022/01/16 09:08:47;;;;;;;54.38;16.40;;;;;;;;;;5062432;28;20058;-76
2022/01/16 09:11:12;;;;;;;45.40;16.17;;;;;;;;;;5054126;28;20386;-76
2022/01/16 09:13:40;;;;;;;55.85;17.20;;;;;;;;;;5055442;28;20045;-74
2022/01/16 09:16:07;;;;;;;45.45;16.48;;;;;;;;;;5055047;28;20041;-75
2022/01/16 09:18:33;;;;;;;43.90;16.15;;;;;;;;;;5058463;28;20521;-75
2022/01/16 09:21:00;;;;;;;56.13;17.48;;;;;;;;;;5058461;28;20102;-75
2022/01/16 09:23:26;;;;;;;47.95;15.90;;;;;;;;;;5057019;28;20027;-76
2022/01/16 09:25:51;;;;;;;46.20;16.13;;;;;;;;;;5054677;28;20032;-76
2022/01/16 09:28:17;;;;;;;43.55;13.82;;;;;;;;;;5057282;28;20033;-76
2022/01/16 09:30:43;;;;;;;44.90;15.68;;;;;;;;;;5053839;28;20078;-76
2022/01/16 09:33:09;;;;;;;48.97;15.27;;;;;;;;;;5055490;28;20123;-76
2022/01/16 09:35:34;;;;;;;54.53;18.48;;;;;;;;;;5056665;28;20024;-76
2022/01/16 09:38:01;;;;;;;45.42;13.55;;;;;;;;;;5059224;28;20024;-76
2022/01/16 09:40:27;;;;;;;46.28;16.33;;;;;;;;;;5057332;28;20036;-76
2022/01/16 09:42:52;;;;;;;37.83;14.07;;;;;;;;;;5068227;28;20037;-76
2022/01/16 09:45:18;;;;;;;51.45;15.63;;;;;;;;;;5056558;28;20041;-76
2022/01/16 09:47:45;;;;;;;49.65;15.68;;;;;;;;;;5055565;28;20037;-76
2022/01/16 09:50:13;;;;;;;41.00;15.00;;;;;;;;;;5059886;28;20027;-76
2022/01/16 09:52:41;;;;;;;35.65;11.77;;;;;;;;;;5056500;28;20094;-76
2022/01/16 09:55:07;;;;;;;44.50;14.73;;;;;;;;;;5060763;28;20124;-76
2022/01/16 09:57:32;;;;;;;45.42;14.25;;;;;;;;;;5056590;28;20041;-76
2022/01/16 09:59:58;;;;;;;30.02;10.88;;;;;;;;;;5055403;28;20052;-76
2022/01/16 10:02:24;;;;;;;28.45;11.55;;;;;;;;;;5055839;28;20052;-76
2022/01/16 10:04:50;;;;;;;30.85;10.85;;;;;;;;;;5056201;28;20036;-76
2022/01/16 10:07:18;;;;;;;40.72;14.07;;;;;;;;;;5057245;28;20052;-76
2022/01/16 10:09:46;;;;;;;40.65;13.35;;;;;;;;;;5058619;28;20063;-76
2022/01/16 10:12:17;;;;;;;39.78;13.95;;;;;;;;;;5063407;28;20036;-77
2022/01/16 10:14:48;;;;;;;44.10;14.50;;;;;;;;;;5055241;28;20037;-76
2022/01/16 10:17:21;;;;;;;27.10;9.80;;;;;;;;;;5046958;28;20052;-76
2022/01/16 10:20:04;;;;;;;36.67;13.88;;;;;;;;;;5058671;28;20507;-78
2022/01/16 10:22:43;;;;;;;39.55;14.02;;;;;;;;;;5058359;28;20060;-77
2022/01/16 10:25:10;;;;;;;40.75;13.88;;;;;;;;;;5054261;28;20037;-77
2022/01/16 10:27:41;;;;;;;41.17;13.00;;;;;;;;;;5056612;28;20044;-78
2022/01/16 10:30:09;;;;;;;29.05;10.93;;;;;;;;;;5057856;28;20059;-76
2022/01/16 10:32:40;;;;;;;41.17;13.63;;;;;;;;;;5057930;28;20497;-79
2022/01/16 10:35:08;;;;;;;36.58;12.88;;;;;;;;;;5064894;28;20043;-78
2022/01/16 10:37:34;;;;;;;37.35;13.35;;;;;;;;;;5058144;28;20109;-77
2022/01/16 10:40:00;;;;;;;40.78;13.63;;;;;;;;;;5051493;28;20040;-76
2022/01/16 10:42:29;;;;;;;38.22;13.18;;;;;;;;;;5054297;28;20059;-82
2022/01/16 10:45:01;;;;;;;40.83;14.18;;;;;;;;;;5054478;28;20045;-80
2022/01/16 10:47:38;;;;;;;41.33;13.47;;;;;;;;;;5055978;28;20130;-76
2022/01/16 10:50:10;;;;;;;39.30;13.63;;;;;;;;;;5056671;28;20066;-76
2022/01/16 10:52:49;;;;;;;43.80;14.15;;;;;;;;;;5053502;28;20087;-77
2022/01/16 10:55:15;;;;;;;40.00;13.80;;;;;;;;;;5054268;28;20131;-76
2022/01/16 10:57:41;;;;;;;40.60;14.05;;;;;;;;;;5057053;28;20574;-77
2022/01/16 11:00:24;;;;;;;38.20;14.23;;;;;;;;;;5050689;28;20053;-75
2022/01/16 11:02:51;;;;;;;;;;;;;;;;;;5056136;28;20049;-76
2022/01/16 11:05:19;;;;;;;35.28;12.95;;;;;;;;;;5056185;28;19919;-76
2022/01/16 11:07:45;;;;;;;46.08;14.80;;;;;;;;;;5059436;28;20068;-76
2022/01/16 11:10:31;;;;;;;42.15;13.50;;;;;;;;;;5058399;28;21484;-76
2022/01/16 11:13:00;;;;;;;40.15;13.32;;;;;;;;;;5069948;28;20098;-76
2022/01/16 11:15:26;;;;;;;36.17;13.10;;;;;;;;;;5059087;28;20036;-76
2022/01/16 11:17:53;;;;;;;38.47;14.20;;;;;;;;;;5057414;28;20040;-79
2022/01/16 11:20:26;;;;;;;36.30;11.90;;;;;;;;;;5058349;28;20490;-79
2022/01/16 11:22:58;;;;;;;41.83;13.95;;;;;;;;;;5060819;28;20449;-79
2022/01/16 11:25:33;;;;;;;38.67;13.27;;;;;;;;;;5058041;28;20040;-82
2022/01/16 11:28:13;;;;;;;37.58;13.07;;;;;;;;;;5061060;28;20131;-81
2022/01/16 11:30:42;;;;;;;34.55;12.60;;;;;;;;;;5058250;28;20082;-81
2022/01/16 11:33:08;;;;;;;34.58;12.30;;;;;;;;;;5062138;28;20123;-81
2022/01/16 11:35:39;;;;;;;40.17;13.90;;;;;;;;;;5057849;28;20166;-79
2022/01/16 11:38:05;;;;;;;40.78;16.13;;;;;;;;;;5063999;28;20036;-83
2022/01/16 11:40:47;;;;;;;40.97;13.25;;;;;;;;;;5057326;28;20072;-80
2022/01/16 11:43:49;;;;;;;42.45;14.23;;;;;;;;;;5061064;28;20048;-79
2022/01/16 11:46:19;;;;;;;31.75;12.45;;;;;;;;;;5058716;28;20532;-80
2022/01/16 11:49:01;;;;;;;38.75;13.40;;;;;;;;;;5061029;28;20050;-80
2022/01/16 11:51:32;;;;;;;34.22;12.82;;;;;;;;;;5058821;28;20040;-79
2022/01/16 11:53:57;;;;;;;38.35;14.10;;;;;;;;;;5065608;28;20040;-79
2022/01/16 11:56:41;;;;;;;38.30;12.80;;;;;;;;;;5086002;28;20030;-79
2022/01/16 11:59:43;;;;;;;35.28;12.85;;;;;;;;;;5080918;28;20062;-79
2022/01/16 12:02:08;;;;;;;41.97;13.50;;;;;;;;;;5076586;28;20059;-79
2022/01/16 12:04:33;;;;;;;47.10;13.30;;;;;;;;;;5076995;28;20721;-79
2022/01/16 12:07:03;;;;;;;45.65;14.65;;;;;;;;;;5077669;28;20097;-79
2022/01/16 12:09:34;;;;;;;44.25;14.15;;;;;;;;;;5078192;28;20052;-77
2022/01/16 12:12:00;;;;;;;48.33;16.20;;;;;;;;;;5076621;28;20556;-79
2022/01/16 12:14:51;;;;;;;41.25;14.57;;;;;;;;;;5077776;28;20028;-78
2022/01/16 12:17:44;;;;;;;38.83;12.75;;;;;;;;;;5082411;28;20047;-79
2022/01/16 12:20:09;;;;;;;32.50;11.50;;;;;;;;;;5049732;28;20040;-79
2022/01/16 12:22:42;;;;;;;39.65;14.18;;;;;;;;;;5074085;28;20474;-79
2022/01/16 12:25:18;;;;;;;43.90;13.57;;;;;;;;;;5079558;28;20035;-79
2022/01/16 12:27:46;;;;;;;41.70;13.60;;;;;;;;;;5077877;28;20586;-79
2022/01/16 12:30:23;;;;;;;39.53;13.70;;;;;;;;;;5076615;28;20036;-79
2022/01/16 12:32:51;;;;;;;39.13;13.02;;;;;;;;;;5078494;28;20472;-79
2022/01/16 12:35:58;;;;;;;37.08;14.05;;;;;;;;;;5078514;28;20039;-79
2022/01/16 12:38:32;;;;;;;39.80;13.13;;;;;;;;;;5037272;28;20096;-79
2022/01/16 12:41:02;;;;;;;34.75;12.80;;;;;;;;;;5034558;28;20033;-79
2022/01/16 12:43:32;;;;;;;43.70;13.32;;;;;;;;;;5048489;28;20036;-78
2022/01/16 12:46:01;;;;;;;36.33;14.02;;;;;;;;;;5064269;28;20041;-79
2022/01/16 12:48:27;;;;;;;40.53;12.48;;;;;;;;;;5057748;28;20090;-77
2022/01/16 12:51:03;;;;;;;46.55;13.85;;;;;;;;;;5058115;28;20032;-80
2022/01/16 12:53:36;;;;;;;40.58;13.75;;;;;;;;;;5053725;28;20024;-79
2022/01/16 12:57:00;;;;;;;38.97;14.05;;;;;;;;;;5053227;28;20741;-79
2022/01/16 12:59:30;;;;;;;35.38;11.85;;;;;;;;;;5061909;28;20563;-79
2022/01/16 13:01:58;;;;;;;39.00;12.18;;;;;;;;;;5074455;28;20051;-79
2022/01/16 13:04:30;;;;;;;36.45;14.27;;;;;;;;;;5077561;28;20086;-80
2022/01/16 13:06:57;;;;;;;47.38;14.93;;;;;;;;;;5073800;28;20051;-79
2022/01/16 13:09:23;;;;;;;39.38;13.80;;;;;;;;;;5076665;28;20047;-79
2022/01/16 13:11:51;;;;;;;46.55;14.73;;;;;;;;;;5071841;28;20128;-79
2022/01/16 13:14:20;;;;;;;42.30;14.18;;;;;;;;;;5064582;28;20066;-78
2022/01/16 13:16:50;;;;;;;40.00;13.18;;;;;;;;;;5051804;28;20951;-79
2022/01/16 13:19:27;;;;;;;39.38;14.15;;;;;;;;;;5054407;28;20551;-79
2022/01/16 13:22:20;;;;;;;45.28;15.40;;;;;;;;;;5054696;28;20608;-79
2022/01/16 13:25:09;;;;;;;38.65;12.05;;;;;;;;;;5055138;28;20040;-78
2022/01/16 13:27:41;;;;;;;43.55;15.63;;;;;;;;;;5056356;28;20067;-79
2022/01/16 13:30:23;;;;;;;43.03;14.68;;;;;;;;;;5062013;28;20044;-79
2022/01/16 13:32:48;;;;;;;44.75;16.02;;;;;;;;;;5060820;28;20060;-79
2022/01/16 13:35:17;;;;;;;41.15;13.60;;;;;;;;;;5057007;28;20652;-79
2022/01/16 13:37:42;;;;;;;47.25;14.80;;;;;;;;;;5055485;28;20044;-75
2022/01/16 13:40:14;;;;;;;46.88;14.35;;;;;;;;;;5054556;28;20506;-78
2022/01/16 13:45:19;;;;;;;42.03;16.02;;;;;;;;;;5049563;28;20592;-74
2022/01/16 13:48:01;;;;;;;49.25;15.38;;;;;;;;;;5058281;28;20131;-75
2022/01/16 13:50:34;;;;;;;39.63;14.32;;;;;;;;;;5054800;28;20036;-80
2022/01/16 13:53:02;;;;;;;42.22;14.35;;;;;;;;;;5057305;28;20039;-76
2022/01/16 13:55:29;;;;;;;41.50;13.88;;;;;;;;;;5056646;28;21109;-80
2022/01/16 13:57:56;;;;;;;35.78;12.32;;;;;;;;;;5050043;28;20455;-79
2022/01/16 14:00:34;;;;;;;44.00;14.68;;;;;;;;;;5055540;28;20488;-78
2022/01/16 14:03:15;;;;;;;43.45;15.00;;;;;;;;;;5055749;28;20047;-77
2022/01/16 14:05:51;;;;;;;43.65;14.70;;;;;;;;;;5053581;28;20155;-79
2022/01/16 14:08:18;;;;;;;35.03;13.00;;;;;;;;;;5052610;28;20039;-76
2022/01/16 14:10:44;;;;;;;42.40;15.60;;;;;;;;;;5051934;28;20037;-76
2022/01/16 14:13:10;;;;;;;46.00;15.27;;;;;;;;;;5056371;28;20040;-73
2022/01/16 14:15:40;;;;;;;39.97;13.50;;;;;;;;;;5052638;28;20059;-79
2022/01/16 14:18:27;;;;;;;43.63;15.38;;;;;;;;;;5050363;28;20124;-77
2022/01/16 14:21:58;;;;;;;42.40;15.02;;;;;;;;;;5055394;28;20123;-77
2022/01/16 14:23:40;;;;;;;40.72;14.15;;;;;;;;;;5052884;28;20032;-75
2022/01/16 14:26:06;;;;;;;47.45;16.52;;;;;;;;;;5059882;28;20020;-80
2022/01/16 14:28:35;;;;;;;41.75;14.98;;;;;;;;;;5053421;28;20513;-80
2022/01/16 14:31:01;;;;;;;44.65;15.00;;;;;;;;;;5049910;28;20037;-81
2022/01/16 14:33:26;;;;;;;47.22;15.48;;;;;;;;;;5053424;28;20083;-81
2022/01/16 14:35:52;;;;;;;48.38;15.73;;;;;;;;;;5055718;28;20109;-78
2022/01/16 14:38:19;;;;;;;39.05;14.80;;;;;;;;;;5055857;28;20776;-78
2022/01/16 14:40:45;;;;;;;45.63;15.68;;;;;;;;;;5061341;28;20040;-77
2022/01/16 14:43:16;;;;;;;47.03;16.73;;;;;;;;;;5074009;28;20593;-78
2022/01/16 14:45:42;;;;;;;44.13;15.15;;;;;;;;;;5075097;28;20048;-78
2022/01/16 14:48:07;;;;;;;43.40;14.48;;;;;;;;;;5076494;28;20033;-78
2022/01/16 14:50:32;;;;;;;46.45;15.13;;;;;;;;;;5059470;28;20042;-79
2022/01/16 14:52:58;;;;;;;50.75;16.10;;;;;;;;;;5058966;28;20020;-77
2022/01/16 14:55:23;;;;;;;48.42;15.63;;;;;;;;;;5057455;28;20032;-78
2022/01/16 14:57:49;;;;;;;44.78;15.82;;;;;;;;;;5060574;28;20041;-77
2022/01/16 15:00:14;;;;;;;47.40;16.30;;;;;;;;;;5059428;28;20040;-77
2022/01/16 15:02:41;;;;;;;60.55;20.63;;;;;;;;;;5059197;28;20056;-73